createdAt,value
2022-12-28T00:02:20.654Z,93.30
2022-12-28T00:04:49.018Z,93.44
2022-12-28T00:07:17.041Z,93.99
2022-12-28T00:09:44.918Z,93.99
2022-12-28T00:12:12.599Z,93.69
2022-12-28T00:14:40.463Z,93.49
2022-12-28T00:17:08.159Z,93.41
2022-12-28T00:19:35.905Z,93.28
2022-12-28T00:22:03.561Z,92.64
2022-12-28T00:24:31.224Z,92.62
2022-12-28T00:26:59.254Z,92.81
2022-12-28T00:29:26.904Z,92.94
2022-12-28T00:31:54.791Z,92.74
2022-12-28T00:34:22.557Z,92.59
2022-12-28T00:37:11.885Z,92.67
2022-12-28T00:39:41.265Z,92.17
2022-12-28T00:42:09.431Z,92.31
2022-12-28T00:44:37.223Z,92.47
2022-12-28T00:47:04.880Z,92.21
2022-12-28T00:49:32.803Z,92.18
2022-12-28T00:52:00.567Z,92.03
2022-12-28T00:54:28.338Z,92.20
2022-12-28T00:56:55.993Z,92.19
2022-12-28T00:59:23.768Z,91.90
2022-12-28T01:01:51.538Z,92.00
2022-12-28T01:04:19.364Z,92.12
2022-12-28T01:06:47.032Z,91.95
2022-12-28T01:09:14.796Z,91.58
2022-12-28T01:11:42.429Z,91.61
2022-12-28T01:14:10.286Z,91.38
2022-12-28T01:16:38.205Z,91.64
2022-12-28T01:19:08.113Z,91.63
2022-12-28T01:21:37.349Z,91.68
2022-12-28T01:24:08.873Z,91.83
2022-12-28T01:26:37.172Z,92.12
2022-12-28T01:29:04.925Z,92.44
2022-12-28T01:31:32.981Z,92.66
2022-12-28T01:34:01.450Z,92.21
2022-12-28T01:36:32.669Z,92.53
2022-12-28T01:39:04.696Z,92.47
2022-12-28T01:41:33.493Z,92.67
2022-12-28T01:44:01.038Z,92.79
2022-12-28T01:46:45.244Z,93.10
2022-12-28T01:49:20.319Z,93.03
2022-12-28T01:51:57.040Z,92.56
2022-12-28T01:54:29.064Z,92.68
2022-12-28T01:56:57.053Z,93.41
2022-12-28T01:59:29.595Z,93.18
2022-12-28T02:01:57.889Z,92.96
2022-12-28T02:04:27.383Z,92.48
2022-12-28T02:06:56.123Z,92.74
2022-12-28T02:09:32.909Z,93.21
2022-12-28T02:12:01.890Z,93.00
2022-12-28T02:14:30.601Z,92.95
2022-12-28T02:16:58.481Z,93.48
2022-12-28T02:19:42.448Z,93.88
2022-12-28T02:22:16.293Z,93.95
2022-12-28T02:25:13.877Z,93.89
2022-12-28T02:27:53.798Z,93.87
2022-12-28T02:30:21.723Z,93.96
2022-12-28T02:33:12.376Z,93.86
2022-12-28T02:35:46.309Z,93.85
2022-12-28T02:38:17.734Z,93.61
2022-12-28T02:40:57.240Z,93.85
2022-12-28T02:43:25.264Z,93.95
2022-12-28T02:46:11.511Z,94.29
2022-12-28T02:49:04.158Z,93.93
2022-12-28T02:51:57.013Z,94.18
2022-12-28T02:54:52.034Z,94.08
2022-12-28T02:57:39.779Z,94.50
2022-12-28T03:00:18.273Z,94.38
2022-12-28T03:03:31.690Z,94.38
2022-12-28T03:06:30.095Z,93.91
2022-12-28T03:09:05.252Z,94.00
2022-12-28T03:11:45.334Z,94.13
2022-12-28T03:14:25.064Z,94.18
2022-12-28T03:17:14.898Z,94.38
2022-12-28T03:20:10.906Z,94.19
2022-12-28T03:23:00.063Z,94.42
2022-12-28T03:25:50.663Z,94.61
2022-12-28T03:28:41.744Z,94.30
2022-12-28T03:31:15.811Z,94.48
2022-12-28T03:33:51.392Z,94.21
2022-12-28T03:36:21.764Z,94.17
2022-12-28T03:39:04.846Z,94.03
2022-12-28T03:41:48.585Z,94.40
2022-12-28T03:44:25.862Z,94.77
2022-12-28T03:47:12.521Z,95.17
2022-12-28T03:49:41.422Z,95.61
2022-12-28T03:52:11.821Z,95.34
2022-12-28T03:54:41.458Z,95.72
2022-12-28T03:57:09.185Z,95.77
2022-12-28T03:59:36.826Z,95.80
2022-12-28T04:02:04.601Z,95.76
2022-12-28T04:04:32.328Z,95.59
2022-12-28T04:06:59.913Z,95.79
2022-12-28T04:09:27.881Z,96.25
2022-12-28T04:11:55.549Z,96.15
2022-12-28T04:14:23.203Z,95.83
2022-12-28T04:16:50.895Z,95.70
2022-12-28T04:19:18.540Z,95.85
2022-12-28T04:21:46.197Z,96.16
2022-12-28T04:24:13.846Z,95.81
2022-12-28T04:26:41.443Z,95.79
2022-12-28T04:29:09.541Z,95.88
2022-12-28T04:31:37.233Z,96.37
2022-12-28T04:34:05.090Z,96.16
2022-12-28T04:36:32.991Z,96.37
2022-12-28T04:39:01.344Z,96.77
2022-12-28T04:41:29.111Z,95.86
2022-12-28T04:43:57.150Z,96.44
2022-12-28T04:46:26.038Z,96.02
2022-12-28T04:48:54.002Z,95.94
2022-12-28T04:51:27.219Z,96.18
2022-12-28T04:53:56.014Z,96.47
2022-12-28T04:56:25.360Z,96.79
2022-12-28T04:58:57.624Z,96.48
2022-12-28T05:01:25.847Z,96.30
2022-12-28T05:03:58.013Z,96.32
2022-12-28T05:06:28.788Z,96.21
2022-12-28T05:08:58.193Z,95.87
2022-12-28T05:11:29.139Z,96.16
2022-12-28T05:13:57.657Z,95.95
2022-12-28T05:16:27.791Z,95.62
2022-12-28T05:18:57.150Z,95.61
2022-12-28T05:21:27.405Z,96.37
2022-12-28T05:23:55.747Z,95.74
2022-12-28T05:26:26.749Z,96.46
2022-12-28T05:28:54.488Z,96.45
2022-12-28T05:31:24.078Z,96.51
2022-12-28T05:33:52.032Z,96.67
2022-12-28T05:36:26.418Z,96.99
2022-12-28T05:38:56.330Z,96.46
2022-12-28T05:41:27.272Z,96.67
2022-12-28T05:43:55.353Z,96.81
2022-12-28T05:46:25.991Z,96.71
2022-12-28T05:48:56.192Z,97.33
2022-12-28T05:51:29.481Z,97.48
2022-12-28T05:53:59.331Z,97.43
2022-12-28T05:56:29.868Z,97.54
2022-12-28T05:59:00.207Z,97.50
2022-12-28T06:01:31.638Z,96.71
2022-12-28T06:04:02.898Z,97.20
2022-12-28T06:06:32.172Z,97.38
2022-12-28T06:08:59.949Z,97.53
2022-12-28T06:11:29.902Z,96.99
2022-12-28T06:13:59.515Z,97.11
2022-12-28T06:16:30.059Z,97.68
2022-12-28T06:18:57.780Z,96.99
2022-12-28T06:21:31.389Z,97.42
2022-12-28T06:24:00.837Z,98.13
2022-12-28T06:26:31.236Z,97.67
2022-12-28T06:28:59.355Z,97.79
2022-12-28T06:31:33.279Z,97.94
2022-12-28T06:34:02.427Z,98.45
2022-12-28T06:36:35.345Z,98.62
2022-12-28T06:39:04.471Z,98.52
2022-12-28T06:41:32.242Z,98.79
2022-12-28T06:44:00.614Z,99.04
2022-12-28T06:46:30.689Z,98.85
2022-12-28T06:48:59.054Z,98.92
2022-12-28T06:51:29.292Z,98.31
2022-12-28T06:53:57.433Z,98.43
2022-12-28T06:56:28.551Z,99.12
2022-12-28T06:59:02.363Z,98.62
2022-12-28T07:01:36.904Z,98.54
2022-12-28T07:04:06.618Z,99.14
2022-12-28T07:06:40.429Z,99.00
2022-12-28T07:09:11.685Z,98.93
2022-12-28T07:11:39.511Z,98.78
2022-12-28T07:14:07.417Z,98.22
2022-12-28T07:19:01.371Z,98.64
2022-12-28T07:21:31.934Z,99.21
2022-12-28T07:24:00.607Z,98.84
2022-12-28T07:26:30.856Z,99.21
2022-12-28T07:29:00.776Z,98.83
2022-12-28T07:31:39.745Z,98.89
2022-12-28T07:34:11.822Z,99.02
2022-12-28T07:36:39.707Z,99.76
2022-12-28T07:39:07.491Z,99.95
2022-12-28T07:41:37.219Z,98.67
2022-12-28T07:44:05.020Z,98.74
2022-12-28T07:46:35.053Z,99.54
2022-12-28T07:49:03.006Z,99.16
2022-12-28T07:51:33.843Z,99.53
2022-12-28T07:54:02.016Z,99.27
2022-12-28T07:56:30.932Z,100.00
2022-12-28T07:59:03.573Z,100.00
2022-12-28T08:01:33.333Z,100.00
2022-12-28T08:04:06.175Z,99.54
2022-12-28T08:06:39.195Z,99.39
2022-12-28T08:09:08.298Z,98.94
2022-12-28T08:11:39.834Z,99.17
2022-12-28T08:14:08.599Z,99.23
2022-12-28T08:16:39.469Z,99.20
2022-12-28T08:19:08.710Z,99.00
2022-12-28T08:21:39.613Z,98.80
2022-12-28T08:24:08.855Z,98.06
2022-12-28T08:26:40.915Z,98.37
2022-12-28T08:29:12.729Z,98.36
2022-12-28T08:31:42.875Z,98.18
2022-12-28T08:34:14.285Z,98.22
2022-12-28T08:36:42.034Z,97.58
2022-12-28T08:39:09.999Z,97.78
2022-12-28T08:41:37.981Z,97.57
2022-12-28T08:44:05.906Z,97.92
2022-12-28T08:46:35.725Z,97.78
2022-12-28T08:49:03.497Z,97.88
2022-12-28T08:51:34.452Z,96.78
2022-12-28T08:54:03.437Z,96.90
2022-12-28T08:56:34.323Z,97.12
2022-12-28T08:59:02.353Z,97.21
2022-12-28T09:01:37.335Z,97.88
2022-12-28T09:04:11.455Z,97.62
2022-12-28T09:06:40.192Z,97.79
2022-12-28T09:09:09.930Z,97.47
2022-12-28T09:11:39.068Z,97.54
2022-12-28T09:14:09.662Z,97.80
2022-12-28T09:16:38.971Z,97.88
2022-12-28T09:19:08.990Z,96.98
2022-12-28T09:21:39.255Z,96.83
2022-12-28T09:24:07.640Z,96.94
2022-12-28T09:26:38.394Z,97.43
2022-12-28T09:29:09.701Z,97.49
2022-12-28T09:31:38.315Z,97.51
2022-12-28T09:36:55.303Z,98.10
2022-12-28T09:39:25.676Z,98.33
2022-12-28T09:41:58.910Z,98.21
2022-12-28T09:44:49.389Z,98.00
2022-12-28T09:47:41.109Z,97.40
2022-12-28T09:50:31.000Z,97.29
2022-12-28T09:53:07.696Z,97.53
2022-12-28T09:55:39.296Z,97.11
2022-12-28T09:58:15.368Z,97.38
2022-12-28T10:00:47.340Z,97.01
2022-12-28T10:03:23.022Z,96.92
2022-12-28T10:05:52.751Z,96.80
2022-12-28T10:08:23.384Z,96.90
2022-12-28T10:10:53.173Z,96.98
2022-12-28T10:13:53.572Z,95.96
2022-12-28T10:16:20.475Z,96.15
2022-12-28T10:18:49.800Z,96.59
2022-12-28T10:21:29.957Z,97.48
2022-12-28T10:26:48.773Z,99.82
2022-12-28T10:29:21.323Z,100.00
2022-12-28T10:32:06.291Z,100.00
2022-12-28T10:34:36.204Z,99.56
2022-12-28T10:37:15.482Z,99.86
2022-12-28T10:40:07.373Z,96.14
2022-12-28T10:42:41.585Z,96.48
2022-12-28T10:45:20.139Z,95.57
2022-12-28T10:47:50.710Z,96.12
2022-12-28T10:50:49.331Z,97.57
2022-12-28T10:53:20.536Z,95.70
2022-12-28T10:55:48.230Z,94.79
2022-12-28T10:58:30.333Z,98.66
2022-12-28T11:01:25.065Z,94.68
2022-12-28T11:04:02.905Z,95.46
2022-12-28T11:06:35.282Z,94.01
2022-12-28T11:09:21.244Z,93.27
2022-12-28T11:11:50.637Z,93.43
2022-12-28T11:14:37.506Z,95.19
2022-12-28T11:17:18.414Z,92.60
2022-12-28T11:19:46.669Z,96.30
2022-12-28T11:22:21.673Z,93.30
2022-12-28T11:24:49.495Z,95.42
2022-12-28T11:27:20.767Z,94.76
2022-12-28T11:29:51.540Z,93.69
2022-12-28T11:32:31.708Z,94.55
2022-12-28T11:35:00.569Z,93.55
2022-12-28T11:37:28.248Z,94.25
2022-12-28T11:39:56.517Z,94.01
2022-12-28T11:42:55.316Z,94.35
2022-12-28T11:45:53.037Z,94.27
2022-12-28T11:48:42.486Z,94.27
2022-12-28T11:51:20.387Z,94.04
2022-12-28T11:53:47.990Z,94.62
2022-12-28T11:56:24.791Z,95.53
2022-12-28T11:59:04.720Z,95.66
2022-12-28T12:01:34.717Z,98.00
2022-12-28T12:04:02.473Z,96.27
2022-12-28T12:06:45.924Z,96.86
2022-12-28T12:09:22.654Z,96.35
2022-12-28T12:12:01.666Z,96.69
2022-12-28T12:14:40.567Z,94.64
2022-12-28T12:17:22.964Z,95.69
2022-12-28T12:19:55.512Z,92.83
2022-12-28T12:22:27.020Z,97.02
2022-12-28T12:25:08.781Z,95.39
2022-12-28T12:27:42.484Z,94.80
2022-12-28T12:30:23.601Z,96.16
2022-12-28T12:32:51.170Z,96.63
2022-12-28T12:35:23.083Z,97.09
2022-12-28T12:38:21.779Z,94.95
2022-12-28T12:41:41.547Z,94.46
2022-12-28T12:44:27.587Z,93.71
2022-12-28T12:47:28.457Z,94.22
2022-12-28T12:50:21.475Z,92.58
2022-12-28T12:53:03.498Z,92.97
2022-12-28T12:55:39.312Z,92.26
2022-12-28T12:58:24.289Z,93.05
2022-12-28T13:01:07.277Z,92.82
2022-12-28T13:03:50.783Z,93.58
2022-12-28T13:06:22.645Z,92.87
2022-12-28T13:09:01.815Z,93.41
2022-12-28T13:11:36.210Z,92.01
2022-12-28T13:14:04.109Z,91.91
2022-12-28T13:16:33.694Z,91.63
2022-12-28T13:19:06.776Z,90.73
2022-12-28T13:21:50.245Z,89.95
2022-12-28T13:24:31.652Z,83.62
2022-12-28T13:27:03.304Z,84.39
2022-12-28T13:29:40.049Z,80.69
2022-12-28T13:32:32.876Z,82.03
2022-12-28T13:35:18.415Z,78.01
2022-12-28T13:38:25.595Z,80.87
2022-12-28T13:40:54.840Z,78.16
2022-12-28T13:43:37.675Z,78.91
2022-12-28T13:46:10.202Z,75.42
2022-12-28T13:48:41.972Z,76.83
2022-12-28T13:51:13.673Z,75.49
2022-12-28T13:53:46.566Z,75.89
2022-12-28T13:56:17.563Z,73.13
2022-12-28T13:58:53.307Z,72.70
2022-12-28T14:01:25.465Z,73.63
2022-12-28T14:04:25.965Z,71.30
2022-12-28T14:06:49.419Z,72.78
2022-12-28T14:09:18.514Z,72.04
2022-12-28T14:11:47.616Z,68.42
2022-12-28T14:14:16.266Z,69.25
2022-12-28T14:16:44.711Z,69.51
2022-12-28T14:19:13.067Z,68.24
2022-12-28T14:21:46.183Z,66.55
2022-12-28T14:24:16.594Z,67.36
2022-12-28T14:26:59.483Z,65.83
2022-12-28T14:29:32.527Z,66.32
2022-12-28T14:32:02.775Z,66.22
2022-12-28T14:34:34.421Z,67.29
2022-12-28T14:37:02.703Z,67.82
2022-12-28T14:39:32.188Z,68.34
2022-12-28T14:42:00.815Z,65.31
2022-12-28T14:44:34.944Z,63.87
2022-12-28T14:47:02.776Z,64.98
2022-12-28T14:49:30.422Z,65.78
2022-12-28T14:52:18.382Z,65.59
2022-12-28T14:54:46.988Z,62.64
2022-12-28T14:57:31.196Z,63.51
2022-12-28T15:00:04.195Z,64.15
2022-12-28T15:02:34.832Z,65.68
2022-12-28T15:05:03.691Z,64.95
2022-12-28T15:07:34.480Z,65.60
2022-12-28T15:10:02.145Z,67.03
2022-12-28T15:12:29.799Z,67.80
2022-12-28T15:14:57.470Z,67.87
2022-12-28T15:17:31.467Z,68.14
2022-12-28T15:20:01.283Z,68.17
2022-12-28T15:22:29.028Z,68.79
2022-12-28T15:24:56.785Z,69.35
2022-12-28T15:27:24.404Z,69.25
2022-12-28T15:30:09.134Z,69.88
2022-12-28T15:32:39.687Z,69.91
2022-12-28T15:35:07.904Z,70.27
2022-12-28T15:37:35.616Z,69.67
2022-12-28T15:40:03.375Z,70.85
2022-12-28T15:42:36.532Z,72.33
2022-12-28T15:45:09.000Z,73.87
2022-12-28T15:47:36.726Z,74.77
2022-12-28T15:50:05.894Z,75.17
2022-12-28T15:52:34.147Z,77.19
2022-12-28T15:55:02.025Z,77.52
2022-12-28T15:57:30.064Z,78.83
2022-12-28T15:59:58.183Z,78.94
2022-12-28T16:02:26.109Z,80.85
2022-12-28T16:04:53.977Z,82.08
2022-12-28T16:07:21.835Z,80.89
2022-12-28T16:09:50.140Z,82.76
2022-12-28T16:12:18.336Z,83.21
2022-12-28T16:14:48.108Z,83.16
2022-12-28T16:17:16.288Z,83.36
2022-12-28T16:19:44.043Z,82.53
2022-12-28T16:22:11.870Z,82.02
2022-12-28T16:24:40.434Z,83.40
2022-12-28T16:27:11.629Z,83.47
2022-12-28T16:29:39.348Z,82.72
2022-12-28T16:32:09.134Z,82.45
2022-12-28T16:34:36.851Z,83.81
2022-12-28T16:37:05.790Z,81.11
2022-12-28T16:39:34.153Z,82.36
2022-12-28T16:42:02.109Z,84.49
2022-12-28T16:44:30.639Z,82.49
2022-12-28T16:47:00.276Z,83.14
2022-12-28T16:49:29.541Z,82.26
2022-12-28T16:51:58.362Z,80.86
2022-12-28T16:54:28.960Z,81.03
2022-12-28T16:56:58.414Z,80.59
2022-12-28T16:59:29.550Z,81.48
2022-12-28T17:01:59.718Z,81.60
2022-12-28T17:04:29.700Z,81.23
2022-12-28T17:06:57.878Z,81.02
2022-12-28T17:09:27.151Z,80.99
2022-12-28T17:11:54.894Z,80.69
2022-12-28T17:14:36.903Z,80.52
2022-12-28T17:17:06.853Z,80.63
2022-12-28T17:19:36.320Z,80.72
2022-12-28T17:22:05.329Z,80.34
2022-12-28T17:24:33.059Z,80.13
2022-12-28T17:27:07.231Z,80.17
2022-12-28T17:29:38.402Z,80.19
2022-12-28T17:32:08.129Z,82.02
2022-12-28T17:34:35.984Z,81.81
2022-12-28T17:37:03.630Z,80.44
2022-12-28T17:39:37.509Z,80.58
2022-12-28T17:42:07.361Z,80.54
2022-12-28T17:44:35.157Z,80.62
2022-12-28T17:47:03.640Z,80.77
2022-12-28T17:49:31.381Z,80.89
2022-12-28T17:51:59.058Z,81.12
2022-12-28T17:54:26.752Z,81.30
2022-12-28T17:56:54.443Z,81.41
2022-12-28T17:59:22.168Z,81.65
2022-12-28T18:01:49.886Z,81.99
2022-12-28T18:04:18.714Z,82.16
2022-12-28T18:06:46.463Z,82.30
2022-12-28T18:09:14.150Z,82.68
2022-12-28T18:11:42.020Z,82.74
2022-12-28T18:14:14.280Z,83.08
2022-12-28T18:16:42.387Z,83.52
2022-12-28T18:19:10.113Z,83.55
2022-12-28T18:21:37.801Z,83.87
2022-12-28T18:24:05.979Z,84.02
2022-12-28T18:26:33.705Z,84.37
2022-12-28T18:29:01.560Z,84.50
2022-12-28T18:31:29.353Z,85.04
2022-12-28T18:33:57.377Z,85.35
2022-12-28T18:36:25.197Z,85.45
2022-12-28T18:38:52.967Z,85.78
2022-12-28T18:41:22.296Z,86.03
2022-12-28T18:43:52.452Z,86.00
2022-12-28T18:46:20.285Z,86.21
2022-12-28T18:48:48.068Z,86.34
2022-12-28T18:51:20.946Z,86.59
2022-12-28T18:53:48.687Z,86.79
2022-12-28T18:56:18.685Z,86.81
2022-12-28T18:58:51.060Z,87.04
2022-12-28T19:02:05.260Z,87.15
2022-12-28T19:04:12.232Z,87.34
2022-12-28T19:06:40.744Z,87.45
2022-12-28T19:09:10.853Z,87.53
2022-12-28T19:11:40.462Z,87.75
2022-12-28T19:14:11.809Z,88.00
2022-12-28T19:16:39.639Z,87.96
2022-12-28T19:19:07.481Z,88.14
2022-12-28T19:21:37.526Z,88.21
2022-12-28T19:24:16.331Z,88.33
2022-12-28T19:26:44.747Z,88.54
2022-12-28T19:29:17.309Z,88.57
2022-12-28T19:31:45.459Z,88.65
2022-12-28T19:34:13.339Z,88.95
2022-12-28T19:36:41.016Z,89.23
2022-12-28T19:39:08.691Z,89.04
2022-12-28T19:41:36.762Z,89.05
2022-12-28T19:44:04.612Z,89.10
2022-12-28T19:46:32.704Z,89.25
2022-12-28T19:49:02.116Z,89.22
2022-12-28T19:51:31.912Z,89.51
2022-12-28T19:54:01.104Z,89.25
2022-12-28T19:56:29.292Z,89.22
2022-12-28T19:59:05.087Z,89.25
2022-12-28T20:01:35.113Z,89.36
2022-12-28T20:04:08.849Z,89.32
2022-12-28T20:06:40.912Z,89.29
2022-12-28T20:09:08.650Z,89.33
2022-12-28T20:11:38.549Z,89.16
2022-12-28T20:14:06.421Z,89.24
2022-12-28T20:16:37.412Z,89.04
2022-12-28T20:19:09.747Z,89.17
2022-12-28T20:21:39.266Z,88.94
2022-12-28T20:24:07.478Z,89.16
2022-12-28T20:26:35.880Z,89.04
2022-12-28T20:29:05.172Z,89.18
2022-12-28T20:31:33.071Z,89.11
2022-12-28T20:34:01.011Z,89.20
2022-12-28T20:36:29.955Z,89.09
2022-12-28T20:38:58.240Z,89.17
2022-12-28T20:41:52.014Z,89.16
2022-12-28T20:44:29.296Z,89.36
2022-12-28T20:46:57.820Z,89.52
2022-12-28T20:49:27.375Z,89.25
2022-12-28T20:51:55.343Z,89.31
2022-12-28T20:54:23.891Z,89.59
2022-12-28T20:56:55.334Z,89.28
2022-12-28T20:59:23.925Z,89.57
2022-12-28T21:01:51.658Z,89.67
2022-12-28T21:04:19.607Z,89.62
2022-12-28T21:06:47.345Z,89.78
2022-12-28T21:11:42.904Z,89.71
2022-12-28T21:14:10.583Z,90.08
2022-12-28T21:16:38.492Z,90.22
2022-12-28T21:19:06.168Z,89.82
2022-12-28T21:21:33.885Z,90.10
2022-12-28T21:24:05.731Z,89.76
2022-12-28T21:26:33.487Z,90.10
2022-12-28T21:29:01.157Z,90.06
2022-12-28T21:31:28.861Z,89.85
2022-12-28T21:33:57.365Z,89.82
2022-12-28T21:36:25.245Z,89.79
2022-12-28T21:38:53.004Z,89.68
2022-12-28T21:41:42.657Z,89.43
2022-12-28T21:44:13.276Z,89.29
2022-12-28T21:46:41.535Z,89.25
2022-12-28T21:49:09.855Z,89.23
2022-12-28T21:51:39.606Z,89.28
2022-12-28T21:54:18.882Z,89.34
2022-12-28T21:56:50.008Z,89.35
2022-12-28T21:59:17.788Z,89.18
2022-12-28T22:02:04.245Z,89.16
2022-12-28T22:04:55.516Z,89.13
2022-12-28T22:07:26.931Z,89.19
2022-12-28T22:10:30.176Z,89.07
2022-12-28T22:12:57.960Z,89.22
2022-12-28T22:15:46.347Z,88.90
2022-12-28T22:19:00.880Z,88.62
2022-12-28T22:21:10.167Z,88.61
2022-12-28T22:23:37.821Z,88.63
2022-12-28T22:26:05.693Z,88.53
2022-12-28T22:28:33.667Z,88.65
2022-12-28T22:31:06.210Z,88.61
2022-12-28T22:33:33.997Z,88.32
2022-12-28T22:36:11.409Z,88.11
2022-12-28T22:38:39.142Z,87.77
2022-12-28T22:41:07.131Z,88.07
2022-12-28T22:43:35.045Z,87.86
2022-12-28T22:46:04.466Z,87.87
2022-12-28T22:48:32.872Z,87.82
2022-12-28T22:51:09.014Z,87.53
2022-12-28T22:53:40.245Z,87.45
2022-12-28T22:56:11.705Z,87.18
2022-12-28T22:58:39.459Z,87.23
2022-12-28T23:01:13.159Z,87.07
2022-12-28T23:03:42.434Z,87.02
2022-12-28T23:06:11.720Z,87.19
2022-12-28T23:08:39.835Z,87.11
2022-12-28T23:11:27.988Z,87.00
2022-12-28T23:13:55.667Z,87.20
2022-12-28T23:16:23.447Z,87.27
2022-12-28T23:19:09.927Z,87.00
2022-12-28T23:21:56.184Z,87.21
2022-12-28T23:24:42.650Z,87.27
2022-12-28T23:27:22.784Z,87.16
2022-12-28T23:29:51.844Z,87.40
2022-12-28T23:32:19.611Z,87.40
2022-12-28T23:34:50.476Z,87.35
2022-12-28T23:37:19.120Z,87.48
2022-12-28T23:39:46.839Z,87.65
2022-12-28T23:42:14.482Z,87.50
2022-12-28T23:44:42.156Z,87.41
2022-12-28T23:47:09.964Z,87.36
2022-12-28T23:49:37.635Z,87.33
2022-12-28T23:52:05.430Z,87.42
2022-12-28T23:54:33.136Z,87.62
2022-12-28T23:57:00.878Z,87.19
2022-12-28T23:59:28.576Z,87.05
